sensor_id;sensor_type;location;lat;lon;timestamp;P1;durP1;ratioP1;P2;durP2;ratioP2
17449;SDS011;8842;51.244;7.102;2023-04-04T00:02:55;11.87;;;11.27;;
17449;SDS011;8842;51.244;7.102;2023-04-04T00:08:07;11.60;;;11.00;;
17449;SDS011;8842;51.244;7.102;2023-04-04T00:13:11;11.70;;;11.10;;
17449;SDS011;8842;51.244;7.102;2023-04-04T00:18:15;11.50;;;10.90;;
17449;SDS011;8842;51.244;7.102;2023-04-04T00:23:27;11.83;;;11.23;;
17449;SDS011;8842;51.244;7.102;2023-04-04T00:33:41;11.40;;;10.80;;
17449;SDS011;8842;51.244;7.102;2023-04-04T00:38:45;11.40;;;10.80;;
17449;SDS011;8842;51.244;7.102;2023-04-04T00:44:00;11.43;;;10.83;;
17449;SDS011;8842;51.244;7.102;2023-04-04T00:49:05;11.50;;;10.90;;
17449;SDS011;8842;51.244;7.102;2023-04-04T00:54:09;11.20;;;10.60;;
17449;SDS011;8842;51.244;7.102;2023-04-04T00:59:13;11.20;;;10.60;;
17449;SDS011;8842;51.244;7.102;2023-04-04T01:04:25;11.13;;;10.53;;
17449;SDS011;8842;51.244;7.102;2023-04-04T01:09:37;11.40;;;10.80;;
17449;SDS011;8842;51.244;7.102;2023-04-04T01:14:42;11.17;;;10.57;;
17449;SDS011;8842;51.244;7.102;2023-04-04T01:19:47;11.30;;;10.70;;
17449;SDS011;8842;51.244;7.102;2023-04-04T01:25:00;10.87;;;10.27;;
17449;SDS011;8842;51.244;7.102;2023-04-04T01:30:07;11.30;;;10.70;;
17449;SDS011;8842;51.244;7.102;2023-04-04T01:35:22;10.93;;;10.33;;
17449;SDS011;8842;51.244;7.102;2023-04-04T01:40:36;11.10;;;10.50;;
17449;SDS011;8842;51.244;7.102;2023-04-04T01:45:43;11.20;;;10.60;;
17449;SDS011;8842;51.244;7.102;2023-04-04T01:50:55;11.33;;;10.73;;
17449;SDS011;8842;51.244;7.102;2023-04-04T01:55:59;10.90;;;10.30;;
17449;SDS011;8842;51.244;7.102;2023-04-04T02:01:11;10.80;;;10.20;;
17449;SDS011;8842;51.244;7.102;2023-04-04T02:06:15;10.90;;;10.30;;
17449;SDS011;8842;51.244;7.102;2023-04-04T02:11:19;11.10;;;10.50;;
17449;SDS011;8842;51.244;7.102;2023-04-04T02:16:24;10.90;;;10.30;;
17449;SDS011;8842;51.244;7.102;2023-04-04T02:21:36;11.10;;;10.50;;
17449;SDS011;8842;51.244;7.102;2023-04-04T02:26:40;10.90;;;10.30;;
17449;SDS011;8842;51.244;7.102;2023-04-04T02:31:44;10.73;;;10.13;;
17449;SDS011;8842;51.244;7.102;2023-04-04T02:42:05;11.17;;;10.57;;
17449;SDS011;8842;51.244;7.102;2023-04-04T02:47:09;11.00;;;10.40;;
17449;SDS011;8842;51.244;7.102;2023-04-04T02:52:14;10.87;;;10.27;;
17449;SDS011;8842;51.244;7.102;2023-04-04T02:57:25;11.37;;;10.77;;
17449;SDS011;8842;51.244;7.102;2023-04-04T03:02:29;11.30;;;10.70;;
17449;SDS011;8842;51.244;7.102;2023-04-04T03:07:33;11.40;;;10.80;;
17449;SDS011;8842;51.244;7.102;2023-04-04T03:12:37;11.20;;;10.60;;
17449;SDS011;8842;51.244;7.102;2023-04-04T03:17:42;11.60;;;11.00;;
17449;SDS011;8842;51.244;7.102;2023-04-04T03:22:54;11.30;;;10.70;;
17449;SDS011;8842;51.244;7.102;2023-04-04T03:28:06;11.33;;;10.73;;
17449;SDS011;8842;51.244;7.102;2023-04-04T03:33:18;11.50;;;10.90;;
17449;SDS011;8842;51.244;7.102;2023-04-04T03:38:30;11.40;;;10.80;;
17449;SDS011;8842;51.244;7.102;2023-04-04T03:43:34;11.40;;;10.80;;
17449;SDS011;8842;51.244;7.102;2023-04-04T03:48:39;11.53;;;10.93;;
17449;SDS011;8842;51.244;7.102;2023-04-04T03:53:50;11.80;;;11.20;;
17449;SDS011;8842;51.244;7.102;2023-04-04T03:58:54;11.93;;;11.33;;
17449;SDS011;8842;51.244;7.102;2023-04-04T04:04:06;11.60;;;11.00;;
17449;SDS011;8842;51.244;7.102;2023-04-04T04:09:10;11.80;;;11.20;;
17449;SDS011;8842;51.244;7.102;2023-04-04T04:14:14;11.90;;;11.30;;
17449;SDS011;8842;51.244;7.102;2023-04-04T04:19:19;11.53;;;10.93;;
17449;SDS011;8842;51.244;7.102;2023-04-04T04:24:23;11.63;;;11.03;;
17449;SDS011;8842;51.244;7.102;2023-04-04T04:29:27;12.00;;;11.40;;
17449;SDS011;8842;51.244;7.102;2023-04-04T04:34:31;12.37;;;11.67;;
17449;SDS011;8842;51.244;7.102;2023-04-04T04:39:35;12.63;;;11.93;;
17449;SDS011;8842;51.244;7.102;2023-04-04T04:44:47;12.40;;;11.70;;
17449;SDS011;8842;51.244;7.102;2023-04-04T04:49:51;12.20;;;11.60;;
17449;SDS011;8842;51.244;7.102;2023-04-04T04:55:04;12.07;;;11.47;;
17449;SDS011;8842;51.244;7.102;2023-04-04T05:05:21;11.70;;;11.10;;
17449;SDS011;8842;51.244;7.102;2023-04-04T05:15:36;12.10;;;11.50;;
17449;SDS011;8842;51.244;7.102;2023-04-04T05:25:51;12.50;;;11.80;;
17449;SDS011;8842;51.244;7.102;2023-04-04T05:30:55;12.13;;;11.50;;
17449;SDS011;8842;51.244;7.102;2023-04-04T05:36:07;12.37;;;11.67;;
17449;SDS011;8842;51.244;7.102;2023-04-04T05:41:13;12.70;;;12.00;;
17449;SDS011;8842;51.244;7.102;2023-04-04T05:46:24;12.50;;;11.80;;
17449;SDS011;8842;51.244;7.102;2023-04-04T05:51:28;12.97;;;12.27;;
17449;SDS011;8842;51.244;7.102;2023-04-04T05:56:40;12.70;;;12.00;;
17449;SDS011;8842;51.244;7.102;2023-04-04T06:01:52;12.10;;;11.50;;
17449;SDS011;8842;51.244;7.102;2023-04-04T06:06:56;12.60;;;11.90;;
17449;SDS011;8842;51.244;7.102;2023-04-04T06:12:08;13.00;;;12.30;;
17449;SDS011;8842;51.244;7.102;2023-04-04T06:17:12;10.30;;;9.80;;
17449;SDS011;8842;51.244;7.102;2023-04-04T06:22:16;12.53;;;11.83;;
17449;SDS011;8842;51.244;7.102;2023-04-04T06:27:27;12.90;;;12.20;;
17449;SDS011;8842;51.244;7.102;2023-04-04T06:37:42;13.10;;;12.40;;
17449;SDS011;8842;51.244;7.102;2023-04-04T06:42:54;13.63;;;12.93;;
17449;SDS011;8842;51.244;7.102;2023-04-04T06:48:00;14.10;;;13.30;;
17449;SDS011;8842;51.244;7.102;2023-04-04T06:53:11;13.30;;;12.60;;
17449;SDS011;8842;51.244;7.102;2023-04-04T06:58:16;12.93;;;12.23;;
17449;SDS011;8842;51.244;7.102;2023-04-04T07:03:20;13.27;;;12.57;;
17449;SDS011;8842;51.244;7.102;2023-04-04T07:08:32;12.73;;;12.03;;
17449;SDS011;8842;51.244;7.102;2023-04-04T07:13:36;13.00;;;12.30;;
17449;SDS011;8842;51.244;7.102;2023-04-04T07:18:40;13.67;;;12.87;;
17449;SDS011;8842;51.244;7.102;2023-04-04T07:23:52;12.90;;;12.20;;
17449;SDS011;8842;51.244;7.102;2023-04-04T07:28:56;14.07;;;13.27;;
17449;SDS011;8842;51.244;7.102;2023-04-04T07:34:07;13.57;;;12.87;;
17449;SDS011;8842;51.244;7.102;2023-04-04T07:39:12;13.50;;;12.80;;
17449;SDS011;8842;51.244;7.102;2023-04-04T07:44:23;14.00;;;13.30;;
17449;SDS011;8842;51.244;7.102;2023-04-04T07:49:28;13.97;;;13.17;;
17449;SDS011;8842;51.244;7.102;2023-04-04T07:54:39;13.30;;;12.60;;
17449;SDS011;8842;51.244;7.102;2023-04-04T07:59:44;13.47;;;12.77;;
17449;SDS011;8842;51.244;7.102;2023-04-04T08:04:55;13.63;;;12.93;;
17449;SDS011;8842;51.244;7.102;2023-04-04T08:10:00;13.53;;;12.83;;
17449;SDS011;8842;51.244;7.102;2023-04-04T08:15:12;13.93;;;13.20;;
17449;SDS011;8842;51.244;7.102;2023-04-04T08:20:16;13.50;;;12.80;;
17449;SDS011;8842;51.244;7.102;2023-04-04T08:25:20;14.20;;;13.40;;
17449;SDS011;8842;51.244;7.102;2023-04-04T08:30:35;13.73;;;13.03;;
17449;SDS011;8842;51.244;7.102;2023-04-04T08:35:39;13.67;;;12.97;;
17449;SDS011;8842;51.244;7.102;2023-04-04T08:40:51;14.37;;;13.57;;
17449;SDS011;8842;51.244;7.102;2023-04-04T08:45:55;14.20;;;13.50;;
17449;SDS011;8842;51.244;7.102;2023-04-04T08:51:07;12.80;;;12.00;;
17449;SDS011;8842;51.244;7.102;2023-04-04T09:01:25;13.90;;;13.10;;
17449;SDS011;8842;51.244;7.102;2023-04-04T09:06:31;14.40;;;13.60;;
17449;SDS011;8842;51.244;7.102;2023-04-04T09:11:35;15.33;;;14.43;;
17449;SDS011;8842;51.244;7.102;2023-04-04T09:16:42;14.13;;;13.37;;
17449;SDS011;8842;51.244;7.102;2023-04-04T09:21:46;14.27;;;13.47;;
17449;SDS011;8842;51.244;7.102;2023-04-04T09:26:58;13.57;;;12.87;;
17449;SDS011;8842;51.244;7.102;2023-04-04T09:32:03;13.80;;;13.03;;
17449;SDS011;8842;51.244;7.102;2023-04-04T09:37:09;14.17;;;13.37;;
17449;SDS011;8842;51.244;7.102;2023-04-04T09:42:21;14.60;;;13.80;;
17449;SDS011;8842;51.244;7.102;2023-04-04T09:47:26;14.20;;;13.40;;
17449;SDS011;8842;51.244;7.102;2023-04-04T09:52:38;14.40;;;13.60;;
17449;SDS011;8842;51.244;7.102;2023-04-04T10:02:56;14.47;;;13.47;;
17449;SDS011;8842;51.244;7.102;2023-04-04T10:08:12;14.20;;;13.40;;
17449;SDS011;8842;51.244;7.102;2023-04-04T10:13:22;14.27;;;13.37;;
17449;SDS011;8842;51.244;7.102;2023-04-04T10:18:27;13.90;;;13.20;;
17449;SDS011;8842;51.244;7.102;2023-04-04T10:23:32;14.50;;;13.40;;
17449;SDS011;8842;51.244;7.102;2023-04-04T10:28:37;13.70;;;13.00;;
17449;SDS011;8842;51.244;7.102;2023-04-04T10:33:55;14.47;;;13.50;;
17449;SDS011;8842;51.244;7.102;2023-04-04T10:39:07;13.10;;;12.40;;
17449;SDS011;8842;51.244;7.102;2023-04-04T10:44:22;14.10;;;13.30;;
17449;SDS011;8842;51.244;7.102;2023-04-04T10:49:28;14.17;;;13.37;;
17449;SDS011;8842;51.244;7.102;2023-04-04T10:54:33;14.20;;;13.20;;
17449;SDS011;8842;51.244;7.102;2023-04-04T10:59:55;13.07;;;12.37;;
17449;SDS011;8842;51.244;7.102;2023-04-04T11:05:09;13.60;;;12.90;;
17449;SDS011;8842;51.244;7.102;2023-04-04T11:10:14;13.77;;;13.07;;
17449;SDS011;8842;51.244;7.102;2023-04-04T11:15:26;13.80;;;13.10;;
17449;SDS011;8842;51.244;7.102;2023-04-04T11:20:33;14.33;;;13.53;;
17449;SDS011;8842;51.244;7.102;2023-04-04T11:25:51;15.10;;;14.10;;
17449;SDS011;8842;51.244;7.102;2023-04-04T11:41:59;14.60;;;13.80;;
17449;SDS011;8842;51.244;7.102;2023-04-04T11:47:08;14.10;;;13.30;;
17449;SDS011;8842;51.244;7.102;2023-04-04T11:57:28;12.70;;;12.00;;
17449;SDS011;8842;51.244;7.102;2023-04-04T12:02:32;13.90;;;13.20;;
17449;SDS011;8842;51.244;7.102;2023-04-04T12:07:45;14.33;;;13.43;;
17449;SDS011;8842;51.244;7.102;2023-04-04T12:12:50;13.27;;;12.57;;
17449;SDS011;8842;51.244;7.102;2023-04-04T12:18:08;13.67;;;12.97;;
17449;SDS011;8842;51.244;7.102;2023-04-04T12:23:12;14.17;;;13.30;;
17449;SDS011;8842;51.244;7.102;2023-04-04T12:28:16;13.60;;;12.90;;
17449;SDS011;8842;51.244;7.102;2023-04-04T12:33:28;14.07;;;13.27;;
17449;SDS011;8842;51.244;7.102;2023-04-04T12:43:44;13.77;;;13.07;;
17449;SDS011;8842;51.244;7.102;2023-04-04T12:48:49;14.10;;;13.33;;
17449;SDS011;8842;51.244;7.102;2023-04-04T12:53:54;14.70;;;13.90;;
17449;SDS011;8842;51.244;7.102;2023-04-04T12:59:07;14.40;;;13.60;;
17449;SDS011;8842;51.244;7.102;2023-04-04T13:09:24;14.83;;;13.93;;
17449;SDS011;8842;51.244;7.102;2023-04-04T13:14:40;13.90;;;13.20;;
17449;SDS011;8842;51.244;7.102;2023-04-04T13:19:53;14.30;;;13.50;;
17449;SDS011;8842;51.244;7.102;2023-04-04T13:24:57;14.07;;;13.33;;
17449;SDS011;8842;51.244;7.102;2023-04-04T13:30:09;14.00;;;13.30;;
17449;SDS011;8842;51.244;7.102;2023-04-04T13:35:14;14.40;;;13.60;;
17449;SDS011;8842;51.244;7.102;2023-04-04T13:40:26;14.07;;;13.27;;
17449;SDS011;8842;51.244;7.102;2023-04-04T13:45:38;14.30;;;13.50;;
17449;SDS011;8842;51.244;7.102;2023-04-04T13:50:45;14.37;;;13.57;;
17449;SDS011;8842;51.244;7.102;2023-04-04T13:55:51;13.80;;;13.10;;
17449;SDS011;8842;51.244;7.102;2023-04-04T14:01:03;14.47;;;13.67;;
17449;SDS011;8842;51.244;7.102;2023-04-04T14:06:08;14.10;;;13.40;;
17449;SDS011;8842;51.244;7.102;2023-04-04T14:11:20;14.10;;;13.30;;
17449;SDS011;8842;51.244;7.102;2023-04-04T14:16:32;14.40;;;13.60;;
17449;SDS011;8842;51.244;7.102;2023-04-04T14:26:48;13.57;;;12.87;;
17449;SDS011;8842;51.244;7.102;2023-04-04T14:31:52;14.10;;;13.20;;
17449;SDS011;8842;51.244;7.102;2023-04-04T14:37:04;13.40;;;12.70;;
17449;SDS011;8842;51.244;7.102;2023-04-04T14:42:09;13.87;;;13.07;;
17449;SDS011;8842;51.244;7.102;2023-04-04T14:47:23;13.70;;;13.00;;
17449;SDS011;8842;51.244;7.102;2023-04-04T14:52:28;13.77;;;13.07;;
17449;SDS011;8842;51.244;7.102;2023-04-04T14:57:33;14.60;;;13.80;;
17449;SDS011;8842;51.244;7.102;2023-04-04T15:02:37;13.73;;;13.03;;
17449;SDS011;8842;51.244;7.102;2023-04-04T15:07:42;13.67;;;12.97;;
17449;SDS011;8842;51.244;7.102;2023-04-04T15:12:47;13.80;;;13.10;;
17449;SDS011;8842;51.244;7.102;2023-04-04T15:18:00;13.67;;;12.97;;
17449;SDS011;8842;51.244;7.102;2023-04-04T15:23:04;13.20;;;12.50;;
17449;SDS011;8842;51.244;7.102;2023-04-04T15:28:16;13.40;;;12.70;;
17449;SDS011;8842;51.244;7.102;2023-04-04T15:33:20;13.20;;;12.50;;
17449;SDS011;8842;51.244;7.102;2023-04-04T15:38:31;13.20;;;12.50;;
17449;SDS011;8842;51.244;7.102;2023-04-04T15:43:35;13.30;;;12.60;;
17449;SDS011;8842;51.244;7.102;2023-04-04T15:48:40;13.37;;;12.67;;
17449;SDS011;8842;51.244;7.102;2023-04-04T15:53:43;12.53;;;11.87;;
17449;SDS011;8842;51.244;7.102;2023-04-04T15:58:48;13.80;;;13.10;;
17449;SDS011;8842;51.244;7.102;2023-04-04T16:03:52;13.00;;;12.30;;
17449;SDS011;8842;51.244;7.102;2023-04-04T16:08:56;12.77;;;12.07;;
17449;SDS011;8842;51.244;7.102;2023-04-04T16:14:07;12.90;;;12.20;;
17449;SDS011;8842;51.244;7.102;2023-04-04T16:19:13;13.30;;;12.60;;
17449;SDS011;8842;51.244;7.102;2023-04-04T16:24:18;13.40;;;12.70;;
17449;SDS011;8842;51.244;7.102;2023-04-04T16:29:22;13.20;;;12.50;;
17449;SDS011;8842;51.244;7.102;2023-04-04T16:34:34;13.20;;;12.50;;
17449;SDS011;8842;51.244;7.102;2023-04-04T16:39:39;13.20;;;12.50;;
17449;SDS011;8842;51.244;7.102;2023-04-04T16:44:44;13.10;;;12.40;;
17449;SDS011;8842;51.244;7.102;2023-04-04T16:49:48;13.50;;;12.80;;
17449;SDS011;8842;51.244;7.102;2023-04-04T16:54:53;13.20;;;12.50;;
17449;SDS011;8842;51.244;7.102;2023-04-04T16:59:57;13.40;;;12.70;;
17449;SDS011;8842;51.244;7.102;2023-04-04T17:05:09;13.60;;;12.90;;
17449;SDS011;8842;51.244;7.102;2023-04-04T17:10:13;12.90;;;12.20;;
17449;SDS011;8842;51.244;7.102;2023-04-04T17:15:25;13.10;;;12.40;;
17449;SDS011;8842;51.244;7.102;2023-04-04T17:20:30;13.40;;;12.70;;
17449;SDS011;8842;51.244;7.102;2023-04-04T17:25:41;13.10;;;12.40;;
17449;SDS011;8842;51.244;7.102;2023-04-04T17:30:45;13.10;;;12.40;;
17449;SDS011;8842;51.244;7.102;2023-04-04T17:41:00;13.20;;;12.50;;
17449;SDS011;8842;51.244;7.102;2023-04-04T17:46:05;12.73;;;12.03;;
17449;SDS011;8842;51.244;7.102;2023-04-04T17:51:18;12.70;;;12.00;;
17449;SDS011;8842;51.244;7.102;2023-04-04T17:56:23;12.87;;;12.13;;
17449;SDS011;8842;51.244;7.102;2023-04-04T18:01:37;10.80;;;10.20;;
17449;SDS011;8842;51.244;7.102;2023-04-04T18:06:41;12.23;;;11.63;;
17449;SDS011;8842;51.244;7.102;2023-04-04T18:11:45;12.67;;;11.97;;
17449;SDS011;8842;51.244;7.102;2023-04-04T18:16:49;12.37;;;11.70;;
17449;SDS011;8842;51.244;7.102;2023-04-04T18:22:01;12.40;;;11.80;;
17449;SDS011;8842;51.244;7.102;2023-04-04T18:27:05;12.63;;;11.93;;
17449;SDS011;8842;51.244;7.102;2023-04-04T18:32:17;12.60;;;11.90;;
17449;SDS011;8842;51.244;7.102;2023-04-04T18:37:23;12.60;;;11.90;;
17449;SDS011;8842;51.244;7.102;2023-04-04T18:42:34;12.80;;;12.10;;
17449;SDS011;8842;51.244;7.102;2023-04-04T18:47:39;12.70;;;12.00;;
17449;SDS011;8842;51.244;7.102;2023-04-04T18:52:50;12.90;;;12.20;;
17449;SDS011;8842;51.244;7.102;2023-04-04T18:57:54;12.67;;;11.97;;
17449;SDS011;8842;51.244;7.102;2023-04-04T19:02:59;12.70;;;12.00;;
17449;SDS011;8842;51.244;7.102;2023-04-04T19:08:11;12.60;;;11.90;;
17449;SDS011;8842;51.244;7.102;2023-04-04T19:18:28;12.93;;;12.23;;
17449;SDS011;8842;51.244;7.102;2023-04-04T19:23:32;12.87;;;12.17;;
17449;SDS011;8842;51.244;7.102;2023-04-04T19:28:36;12.77;;;12.07;;
17449;SDS011;8842;51.244;7.102;2023-04-04T19:33:48;12.40;;;11.77;;
17449;SDS011;8842;51.244;7.102;2023-04-04T19:38:52;13.30;;;12.60;;
17449;SDS011;8842;51.244;7.102;2023-04-04T19:43:57;13.07;;;12.37;;
17449;SDS011;8842;51.244;7.102;2023-04-04T19:49:09;12.90;;;12.20;;
17449;SDS011;8842;51.244;7.102;2023-04-04T19:54:13;13.10;;;12.40;;
17449;SDS011;8842;51.244;7.102;2023-04-04T20:04:57;12.80;;;12.10;;
17449;SDS011;8842;51.244;7.102;2023-04-04T20:10:09;12.80;;;12.10;;
17449;SDS011;8842;51.244;7.102;2023-04-04T20:15:13;12.83;;;12.13;;
17449;SDS011;8842;51.244;7.102;2023-04-04T20:20:45;12.80;;;12.10;;
17449;SDS011;8842;51.244;7.102;2023-04-04T20:25:52;13.17;;;12.47;;
17449;SDS011;8842;51.244;7.102;2023-04-04T20:30:56;12.90;;;12.20;;
17449;SDS011;8842;51.244;7.102;2023-04-04T20:36:09;12.57;;;11.87;;
17449;SDS011;8842;51.244;7.102;2023-04-04T20:41:15;12.97;;;12.20;;
17449;SDS011;8842;51.244;7.102;2023-04-04T20:46:27;13.13;;;12.33;;
17449;SDS011;8842;51.244;7.102;2023-04-04T20:56:46;13.03;;;12.33;;
17449;SDS011;8842;51.244;7.102;2023-04-04T21:02:00;12.07;;;11.47;;
17449;SDS011;8842;51.244;7.102;2023-04-04T21:07:34;12.00;;;11.40;;
17449;SDS011;8842;51.244;7.102;2023-04-04T21:12:42;12.20;;;11.60;;
17449;SDS011;8842;51.244;7.102;2023-04-04T21:17:54;12.40;;;11.60;;
17449;SDS011;8842;51.244;7.102;2023-04-04T21:22:59;11.67;;;11.07;;
17449;SDS011;8842;51.244;7.102;2023-04-04T21:28:11;12.03;;;11.43;;
17449;SDS011;8842;51.244;7.102;2023-04-04T21:33:16;12.10;;;11.40;;
17449;SDS011;8842;51.244;7.102;2023-04-04T21:38:25;12.13;;;11.53;;
17449;SDS011;8842;51.244;7.102;2023-04-04T21:43:38;11.87;;;11.27;;
17449;SDS011;8842;51.244;7.102;2023-04-04T21:48:42;12.30;;;11.60;;
17449;SDS011;8842;51.244;7.102;2023-04-04T21:53:54;11.80;;;11.20;;
17449;SDS011;8842;51.244;7.102;2023-04-04T21:58:58;12.10;;;11.50;;
17449;SDS011;8842;51.244;7.102;2023-04-04T22:04:13;11.63;;;11.03;;
17449;SDS011;8842;51.244;7.102;2023-04-04T22:09:17;11.90;;;11.30;;
17449;SDS011;8842;51.244;7.102;2023-04-04T22:14:29;11.70;;;11.10;;
17449;SDS011;8842;51.244;7.102;2023-04-04T22:19:33;10.90;;;10.30;;
17449;SDS011;8842;51.244;7.102;2023-04-04T22:24:39;12.50;;;11.70;;
17449;SDS011;8842;51.244;7.102;2023-04-04T22:29:43;11.73;;;11.13;;
17449;SDS011;8842;51.244;7.102;2023-04-04T22:34:55;11.57;;;10.97;;
17449;SDS011;8842;51.244;7.102;2023-04-04T22:39:59;12.20;;;11.50;;
17449;SDS011;8842;51.244;7.102;2023-04-04T22:45:11;11.80;;;11.20;;
17449;SDS011;8842;51.244;7.102;2023-04-04T22:50:15;12.83;;;11.93;;
17449;SDS011;8842;51.244;7.102;2023-04-04T22:55:27;11.73;;;11.13;;
17449;SDS011;8842;51.244;7.102;2023-04-04T23:00:32;11.80;;;11.20;;
17449;SDS011;8842;51.244;7.102;2023-04-04T23:05:45;11.30;;;10.70;;
17449;SDS011;8842;51.244;7.102;2023-04-04T23:16:00;11.30;;;10.70;;
17449;SDS011;8842;51.244;7.102;2023-04-04T23:21:04;11.40;;;10.80;;
17449;SDS011;8842;51.244;7.102;2023-04-04T23:26:16;11.57;;;10.97;;
17449;SDS011;8842;51.244;7.102;2023-04-04T23:31:20;11.57;;;10.97;;
17449;SDS011;8842;51.244;7.102;2023-04-04T23:36:32;11.47;;;10.87;;
17449;SDS011;8842;51.244;7.102;2023-04-04T23:41:36;11.50;;;10.90;;
17449;SDS011;8842;51.244;7.102;2023-04-04T23:46:47;11.30;;;10.70;;
17449;SDS011;8842;51.244;7.102;2023-04-04T23:51:52;11.50;;;10.90;;
17449;SDS011;8842;51.244;7.102;2023-04-04T23:57:03;11.47;;;10.87;;
